Magne Viking — OURK2 — position and weather

sailwx.info

Track history (hours):
 
Tides and Currents Weather Stations Pressure Air Temp Water Temp Dewpoint Dewpoint Depression Visibility Wind Speed Wind Dir Waves Ship Positions

Magne Viking

Last reported at 2016-Dec-05 16:33 UTC. Time now 2016-Dec-06 14:05 UTC.
Position N 56°42' W 002°25'.

Length 85 m; draft 6.8 m.

Type: Tug. MMSI: 219375000.

Date/timePositionNaut miles runAvg speedWind from/ knotsBaromVisibWave heightAir tempDewpointWater temp
2016-Dec-05 16:33N 56°42' W 002°25'4 4.2
2016-Dec-05 15:34N 56°45' W 002°20'6 6.3
2016-Dec-05 14:33N 56°49' W 002°11'8 7.8
2016-Dec-05 13:32N 56°57' W 002°05'9 9.1
2016-Dec-05 12:33N 57°04' W 001°57'9 9.0
2016-Dec-05 11:33N 57°13' W 001°50'9 8.5
2016-Dec-05 10:34N 57°20' W 001°43'8 8.1
2016-Dec-05 09:33N 57°28' W 001°37'8 8.1
2016-Dec-05 08:33N 57°35' W 001°32'  
2016-Dec-01 08:34N 57°35' W 001°32'1111.2
2016-Dec-01 07:34N 57°25' W 001°40'1211.9
2016-Dec-01 06:33N 57°14' W 001°49'1211.7
2016-Dec-01 05:34N 57°03' W 001°58'  
Track history (hours):
 
Tides and Currents Weather Stations Pressure Air Temp Water Temp Dewpoint Dewpoint Depression Visibility Wind Speed Wind Dir Waves Ship Positions

Magne Viking

Last reported at 2016-Dec-05 16:33 UTC. Time now 2016-Dec-06 14:05 UTC.
Position N 56°42' W 002°25'.

Length 85 m; draft 6.8 m.

Type: Tug. MMSI: 219375000.

Date/timePositionNaut miles runAvg speedWind from/ knotsBaromVisibWave heightAir tempDewpointWater temp
2016-Dec-05 16:33N 56°42' W 002°25'4 4.2
2016-Dec-05 15:34N 56°45' W 002°20'6 6.3
2016-Dec-05 14:33N 56°49' W 002°11'8 7.8
2016-Dec-05 13:32N 56°57' W 002°05'9 9.1
2016-Dec-05 12:33N 57°04' W 001°57'9 9.0
2016-Dec-05 11:33N 57°13' W 001°50'9 8.5
2016-Dec-05 10:34N 57°20' W 001°43'8 8.1
2016-Dec-05 09:33N 57°28' W 001°37'8 8.1
2016-Dec-05 08:33N 57°35' W 001°32'  
2016-Dec-01 08:34N 57°35' W 001°32'1111.2
2016-Dec-01 07:34N 57°25' W 001°40'1211.9
2016-Dec-01 06:33N 57°14' W 001°49'1211.7
2016-Dec-01 05:34N 57°03' W 001°58'  

Dump ship's entire track history